Time;durP1;ratioP1;P1;durP2;ratioP2;P2;SDS_P1;SDS_P2;PMS_P1;PMS_P2;Temp;Humidity;BMP_temperature;BMP_pressure;BME280_temperature;BME280_humidity;BME280_pressure;Samples;Min_cycle;Max_cycle;Signal;HPM_P1;HPM_P2
2022/05/02 00:00:57;;;;;;;30.10;16.88;;;;;;;12.23;56.98;101063.22;4955212;28;20027;-85
2022/05/02 00:03:23;;;;;;;41.72;17.17;;;;;;;12.08;57.52;101055.56;4969962;28;20053;-85
2022/05/02 00:05:48;;;;;;;25.02;13.90;;;;;;;11.91;57.42;101065.84;4953258;29;20517;-85
2022/05/02 00:08:13;;;;;;;27.13;13.20;;;;;;;11.90;57.58;101045.25;4969944;28;20039;-85
2022/05/02 00:10:39;;;;;;;25.48;14.15;;;;;;;11.94;57.67;101054.81;4954754;28;20101;-85
2022/05/02 00:13:10;;;;;;;28.85;14.18;;;;;;;11.91;57.81;101055.06;4955477;28;20036;-85
2022/05/02 00:15:37;;;;;;;21.45;12.88;;;;;;;11.90;57.78;101042.56;4970146;28;20030;-85
2022/05/02 00:18:04;;;;;;;24.20;11.98;;;;;;;11.83;57.69;101037.78;4970114;28;20074;-84
2022/05/02 00:20:37;;;;;;;23.25;11.05;;;;;;;11.83;58.03;101040.50;4955587;28;20059;-85
2022/05/02 00:23:07;;;;;;;20.33;9.65;;;;;;;11.77;57.94;101033.72;4955199;28;20039;-85
2022/05/02 00:25:33;;;;;;;26.25;10.68;;;;;;;11.79;57.89;101031.78;4955593;28;20026;-83
2022/05/02 00:27:59;;;;;;;17.58;8.75;;;;;;;11.74;57.69;101031.28;4963241;28;20035;-86
2022/05/02 00:30:26;;;;;;;26.90;9.98;;;;;;;11.76;58.22;101041.94;4992091;28;20023;-85
2022/05/02 00:32:55;;;;;;;14.68;9.52;;;;;;;11.70;58.00;101037.03;4981550;28;20046;-85
2022/05/02 00:35:21;;;;;;;19.48;9.77;;;;;;;11.67;58.24;101026.47;4958676;28;20031;-84
2022/05/02 00:37:47;;;;;;;21.38;9.77;;;;;;;11.68;59.11;101041.69;4980577;28;20038;-86
2022/05/02 00:40:16;;;;;;;25.00;10.85;;;;;;;11.54;59.50;101048.13;4969724;29;20035;-84
2022/05/02 00:42:43;;;;;;;23.70;12.07;;;;;;;11.60;58.91;101041.41;4974606;28;20046;-85
2022/05/02 00:45:10;;;;;;;19.30;10.70;;;;;;;11.71;59.18;101050.38;4957682;29;20035;-84
2022/05/02 00:47:37;;;;;;;19.30;10.43;;;;;;;11.62;59.14;101040.31;4959027;28;20035;-86
2022/05/02 00:50:07;;;;;;;19.52;10.00;;;;;;;11.52;59.67;101055.50;4958296;28;20042;-86
2022/05/02 00:52:33;;;;;;;30.58;10.23;;;;;;;11.59;59.98;101053.19;4959085;28;20141;-86
2022/05/02 00:55:00;;;;;;;30.88;11.25;;;;;;;11.62;59.53;101045.69;4973972;28;20133;-86
2022/05/02 00:57:26;;;;;;;24.95;10.02;;;;;;;11.64;59.85;101048.28;4957344;29;20134;-85
2022/05/02 00:59:51;;;;;;;37.38;9.57;;;;;;;11.57;59.64;101045.22;4957147;29;20070;-85
2022/05/02 01:02:18;;;;;;;26.00;10.30;;;;;;;11.55;59.93;101059.78;4958804;28;20366;-85
2022/05/02 01:04:44;;;;;;;24.05;9.70;;;;;;;11.51;59.73;101048.38;4973998;28;20517;-85
2022/05/02 01:07:12;;;;;;;22.25;9.25;;;;;;;11.55;59.79;101054.41;4957782;29;20031;-84
2022/05/02 01:09:42;;;;;;;16.45;8.13;;;;;;;11.41;60.00;101055.47;4959188;28;20041;-84
2022/05/02 01:12:14;;;;;;;16.73;9.60;;;;;;;11.32;60.29;101058.88;4957831;29;20034;-85
2022/05/02 01:14:40;;;;;;;17.08;9.52;;;;;;;11.28;60.31;101047.47;4958875;28;20034;-85
2022/05/02 01:17:07;;;;;;;19.27;9.30;;;;;;;11.27;60.23;101044.91;4958635;28;20034;-84
2022/05/02 01:19:34;;;;;;;23.35;9.38;;;;;;;11.30;60.27;101048.22;4958650;28;20031;-85
2022/05/02 01:22:00;;;;;;;20.20;9.45;;;;;;;11.22;60.86;101044.44;4973329;28;20520;-84
2022/05/02 01:24:46;;;;;;;20.10;8.57;;;;;;;11.25;60.35;101050.41;4958933;28;20028;-84
2022/05/02 01:27:15;;;;;;;15.45;8.70;;;;;;;11.20;60.38;101043.66;4973664;28;20039;-85
2022/05/02 01:29:43;;;;;;;19.85;9.80;;;;;;;11.06;60.60;101035.81;4940785;29;20039;-85
2022/05/02 01:32:13;;;;;;;23.85;8.73;;;;;;;11.14;60.65;101034.22;4958569;28;20043;-85
2022/05/02 01:34:42;;;;;;;19.63;8.73;;;;;;;11.16;60.57;101026.88;4958490;28;20035;-85
2022/05/02 01:37:11;;;;;;;15.00;9.25;;;;;;;11.13;60.76;101028.97;4957968;28;20046;-84
2022/05/02 01:39:36;;;;;;;15.13;8.35;;;;;;;11.11;61.19;101034.47;4973033;28;20031;-85
2022/05/02 01:42:04;;;;;;;17.13;8.40;;;;;;;10.97;61.45;101021.22;4959037;28;20031;-85
2022/05/02 01:44:30;;;;;;;23.17;9.45;;;;;;;10.96;61.76;101032.97;4956374;28;20024;-86
2022/05/02 01:46:57;;;;;;;18.60;8.48;;;;;;;10.88;62.13;101032.69;4957906;28;20117;-86
2022/05/02 01:49:27;;;;;;;20.60;8.88;;;;;;;10.90;62.01;101034.28;4956162;28;20489;-86
2022/05/02 01:51:53;;;;;;;18.85;9.18;;;;;;;10.88;61.66;101022.78;4972870;28;20055;-85
2022/05/02 01:54:18;;;;;;;23.77;8.80;;;;;;;10.83;61.41;101030.34;4958005;28;20507;-84
2022/05/02 01:56:44;;;;;;;15.85;9.43;;;;;;;10.83;61.76;101024.09;4957779;28;20106;-85
2022/05/02 01:59:12;;;;;;;20.35;9.18;;;;;;;10.87;61.47;101022.91;4956779;28;20035;-84
2022/05/02 02:01:37;;;;;;;24.85;8.85;;;;;;;10.87;61.43;101026.44;4958028;28;20028;-84
2022/05/02 02:05:48;;;;;;;17.38;10.38;;;;;;;10.97;61.46;101031.13;4958738;28;20453;-84
2022/05/02 02:06:53;;;;;;;19.25;9.82;;;;;;;10.90;60.62;101026.22;4975503;29;20023;-84
2022/05/02 02:09:19;;;;;;;24.77;10.45;;;;;;;10.95;60.88;101033.91;4966654;28;20039;-84
2022/05/02 02:11:44;;;;;;;14.98;8.43;;;;;;;10.92;60.40;101035.03;4957340;28;20469;-84
2022/05/02 02:14:10;;;;;;;17.98;9.07;;;;;;;10.98;60.09;101043.63;4958028;28;20030;-83
2022/05/02 02:16:36;;;;;;;14.75;8.90;;;;;;;11.01;59.71;101038.00;4972729;28;20126;-84
2022/05/02 02:19:01;;;;;;;17.67;8.73;;;;;;;11.00;59.91;101036.28;4957719;28;20035;-85
2022/05/02 02:21:27;;;;;;;15.52;8.88;;;;;;;10.90;60.00;101041.50;4957492;28;20027;-84
2022/05/02 02:23:53;;;;;;;19.83;9.25;;;;;;;10.77;60.10;101033.50;4957077;28;20035;-84
2022/05/02 02:26:19;;;;;;;27.70;9.60;;;;;;;10.68;60.29;101020.75;4956609;29;20474;-86
2022/05/02 02:28:46;;;;;;;16.52;9.75;;;;;;;10.83;59.57;101027.66;4970077;28;20039;-84
2022/05/02 02:31:13;;;;;;;25.17;10.25;;;;;;;10.87;59.56;101026.44;4959609;28;20043;-85
2022/05/02 02:33:38;;;;;;;18.48;9.38;;;;;;;10.72;59.53;101022.22;4958342;28;20110;-85
2022/05/02 02:36:04;;;;;;;16.00;9.25;;;;;;;10.63;59.65;101012.16;4959367;28;20126;-84
2022/05/02 02:38:30;;;;;;;18.35;10.10;;;;;;;10.58;60.50;101026.94;4958884;28;20057;-85
2022/05/02 02:40:55;;;;;;;18.23;10.00;;;;;;;10.55;60.49;101017.25;4960672;28;20023;-84
2022/05/02 02:43:21;;;;;;;23.65;10.35;;;;;;;10.44;60.56;101011.84;4957364;28;20027;-85
2022/05/02 02:45:46;;;;;;;18.30;11.15;;;;;;;10.60;60.66;101028.53;4957359;28;20031;-84
2022/05/02 02:48:11;;;;;;;21.13;10.60;;;;;;;10.52;60.59;101028.25;4957265;28;20059;-85
2022/05/02 02:50:37;;;;;;;19.02;11.38;;;;;;;10.61;60.83;101030.25;4956953;28;20038;-84
2022/05/02 02:53:02;;;;;;;27.15;12.25;;;;;;;10.61;60.79;101019.47;4956630;28;20058;-85
2022/05/02 02:55:28;;;;;;;22.58;11.55;;;;;;;10.61;61.04;101030.25;4955778;29;20038;-85
2022/05/02 02:57:54;;;;;;;30.67;11.77;;;;;;;10.71;60.61;101033.97;4955228;28;20031;-85
2022/05/02 03:00:20;;;;;;;26.58;11.73;;;;;;;10.76;60.91;101017.50;4957672;28;20062;-85
2022/05/02 03:02:48;;;;;;;28.98;11.65;;;;;;;10.66;60.58;101003.88;4956722;28;20101;-82
2022/05/02 03:07:58;;;;;;;28.40;12.88;;;;;;;10.80;60.90;101022.50;4956387;29;20045;-86
2022/05/02 03:10:24;;;;;;;26.55;12.70;;;;;;;10.63;61.23;101004.09;4955329;29;20023;-84
2022/05/02 03:12:49;;;;;;;30.15;14.25;;;;;;;10.58;61.47;101019.72;4954955;29;20129;-85
2022/05/02 03:15:15;;;;;;;24.25;15.98;;;;;;;10.67;61.18;101027.09;4970860;28;20096;-84
2022/05/02 03:17:40;;;;;;;39.20;15.40;;;;;;;10.68;61.10;101025.25;4956658;28;20027;-85
2022/05/02 03:20:06;;;;;;;27.10;16.45;;;;;;;10.70;61.08;101017.94;4955065;29;20485;-85
2022/05/02 03:22:32;;;;;;;35.92;18.58;;;;;;;10.72;60.42;101018.69;4955441;28;20125;-85
2022/05/02 03:24:57;;;;;;;31.33;15.80;;;;;;;10.79;59.99;101022.63;4971034;28;20019;-85
2022/05/02 03:27:23;;;;;;;28.13;16.48;;;;;;;10.83;59.96;101011.50;4955619;28;20138;-85
2022/05/02 03:29:48;;;;;;;41.70;18.83;;;;;;;10.85;59.73;101017.66;4955574;28;20458;-85
2022/05/02 03:32:14;;;;;;;41.15;19.00;;;;;;;10.73;59.98;101007.78;4956007;28;20035;-84
2022/05/02 03:34:39;;;;;;;32.03;17.38;;;;;;;10.76;59.89;101014.78;4956401;28;20023;-85
2022/05/02 03:37:05;;;;;;;38.50;16.95;;;;;;;10.86;60.06;101019.34;4954695;29;20030;-85
2022/05/02 03:39:32;;;;;;;35.60;17.92;;;;;;;10.90;60.26;101026.22;4971378;28;20023;-85
2022/05/02 03:41:58;;;;;;;29.17;16.80;;;;;;;10.93;60.31;101017.03;4970207;28;20043;-85
2022/05/02 03:44:24;;;;;;;35.30;17.50;;;;;;;10.99;59.79;101019.25;4969567;29;20031;-85
2022/05/02 03:46:49;;;;;;;30.55;16.35;;;;;;;11.05;59.90;101017.94;4972489;28;20019;-85
2022/05/02 03:49:15;;;;;;;26.27;15.85;;;;;;;11.05;59.50;101017.94;4954296;28;20038;-85
2022/05/02 03:51:40;;;;;;;36.58;15.68;;;;;;;11.01;60.06;101016.47;4970008;28;20051;-85
2022/05/02 03:54:06;;;;;;;38.13;14.85;;;;;;;10.99;60.05;100999.56;4956264;28;20061;-86
2022/05/02 03:56:31;;;;;;;44.78;15.10;;;;;;;11.14;60.00;101007.31;4956072;28;20031;-85
2022/05/02 03:58:58;;;;;;;35.15;14.27;;;;;;;11.12;59.75;100994.97;4956218;28;20409;-84
2022/05/02 04:01:24;;;;;;;29.80;15.02;;;;;;;11.25;59.44;101010.00;4956274;28;20089;-85
2022/05/02 04:03:50;;;;;;;22.65;13.98;;;;;;;11.28;60.26;100999.00;4971332;28;20027;-86
2022/05/02 04:06:16;;;;;;;26.50;14.23;;;;;;;11.28;59.74;100995.47;4954182;29;20553;-86
2022/05/02 04:08:41;;;;;;;32.88;14.95;;;;;;;11.30;60.05;100990.81;4955779;28;20031;-85
2022/05/02 04:11:07;;;;;;;24.02;13.88;;;;;;;11.24;60.47;100994.00;4954011;29;20500;-79
2022/05/02 04:13:32;;;;;;;32.75;14.90;;;;;;;11.26;60.51;100979.44;4956391;28;20413;-83
2022/05/02 04:15:59;;;;;;;32.08;15.27;;;;;;;11.31;60.33;100981.78;4972137;28;20031;-85
2022/05/02 04:18:25;;;;;;;28.60;14.43;;;;;;;11.32;60.82;100973.56;4976477;28;20043;-84
2022/05/02 04:20:51;;;;;;;35.53;15.68;;;;;;;11.22;60.80;100958.28;4964941;29;20042;-80
2022/05/02 04:23:16;;;;;;;24.20;14.13;;;;;;;11.47;60.34;100988.50;4970612;28;20031;-83
2022/05/02 04:25:42;;;;;;;25.42;14.82;;;;;;;11.49;60.51;100991.09;4955588;28;20454;-83
2022/05/02 04:28:08;;;;;;;48.28;14.70;;;;;;;11.50;59.81;100976.63;4954612;28;20050;-86
2022/05/02 04:30:35;;;;;;;24.83;14.18;;;;;;;11.47;59.98;100974.16;4971236;28;20028;-83
2022/05/02 04:33:01;;;;;;;41.97;15.70;;;;;;;11.55;59.58;100974.44;4956609;28;20042;-85
2022/05/02 04:35:28;;;;;;;36.65;15.38;;;;;;;11.65;59.40;100967.31;4953725;28;20022;-83
2022/05/02 04:37:54;;;;;;;32.20;15.63;;;;;;;11.66;59.40;100966.34;4970407;28;20023;-86
2022/05/02 04:40:20;;;;;;;38.47;16.30;;;;;;;11.86;58.88;100972.88;4953906;29;20037;-87
2022/05/02 04:42:46;;;;;;;28.27;15.80;;;;;;;11.92;58.42;100969.66;4954459;28;20035;-80
2022/05/02 04:45:12;;;;;;;43.53;16.33;;;;;;;12.02;59.23;100967.09;4954514;28;20487;-78
2022/05/02 04:47:38;;;;;;;40.25;16.65;;;;;;;12.11;58.39;100967.16;4954079;28;20051;-77
2022/05/02 04:50:04;;;;;;;32.58;15.60;;;;;;;12.22;58.52;100958.19;4952575;29;20031;-76
2022/05/02 04:52:30;;;;;;;36.28;17.20;;;;;;;12.30;57.91;100958.41;4968608;28;20075;-77
2022/05/02 04:54:55;;;;;;;51.42;17.23;;;;;;;12.26;57.79;100954.28;4969515;28;20079;-83
2022/05/02 04:57:21;;;;;;;50.90;16.80;;;;;;;12.32;57.69;100959.97;4954276;29;20027;-84
2022/05/02 04:59:47;;;;;;;34.20;15.88;;;;;;;12.34;57.52;100959.88;4954705;28;20501;-85
2022/05/02 05:02:14;;;;;;;43.38;16.08;;;;;;;12.43;56.72;100951.00;4956076;28;20114;-84
2022/05/02 05:04:40;;;;;;;33.67;14.45;;;;;;;12.51;56.97;100954.75;4955180;29;20114;-85
2022/05/02 05:07:06;;;;;;;46.88;15.57;;;;;;;12.55;56.33;100960.75;4954504;28;20027;-82
2022/05/02 05:09:31;;;;;;;35.85;15.90;;;;;;;12.59;56.63;100948.75;4954632;28;20093;-83
2022/05/02 05:12:12;;;;;;;46.83;15.93;;;;;;;12.71;55.84;100954.94;4954424;28;20094;-84
2022/05/02 05:17:45;;;;;;;38.80;14.68;;;;;;;12.88;55.81;100955.19;4935004;29;20043;-86
2022/05/02 05:20:36;;;;;;;49.20;15.15;;;;;;;12.83;55.91;100949.34;4963669;28;20054;-84
2022/05/02 05:23:27;;;;;;;32.40;15.07;;;;;;;12.94;55.49;100962.75;4972570;28;20035;-86
2022/05/02 05:26:09;;;;;;;37.72;13.57;;;;;;;13.05;54.99;100960.03;4941114;29;20048;-84
2022/05/02 05:29:00;;;;;;;33.58;14.38;;;;;;;13.12;55.33;100954.94;4957368;29;20437;-82
2022/05/02 05:31:36;;;;;;;28.40;14.23;;;;;;;13.20;55.24;100957.84;4957638;29;20083;-86
2022/05/02 05:34:35;;;;;;;52.38;17.33;;;;;;;13.33;55.13;100957.66;4956758;28;20027;-83
2022/05/02 05:37:28;;;;;;;29.38;14.48;;;;;;;13.41;55.18;100966.78;4957717;29;20036;-85
2022/05/02 05:40:28;;;;;;;31.50;13.70;;;;;;;13.54;55.04;100961.16;4956363;28;20050;-85
2022/05/02 05:43:20;;;;;;;29.45;13.77;;;;;;;13.61;55.10;100971.28;4956325;29;20038;-83
2022/05/02 05:46:16;;;;;;;38.83;15.80;;;;;;;13.76;54.79;100970.94;4957646;28;20035;-81
2022/05/02 05:49:10;;;;;;;37.58;13.75;;;;;;;13.88;54.87;100976.06;4957929;28;20038;-85
2022/05/02 05:52:09;;;;;;;42.90;19.13;;;;;;;13.83;54.95;100972.06;4972138;28;20042;-84
2022/05/02 05:55:06;;;;;;;27.00;11.73;;;;;;;14.00;54.59;100975.00;4957544;28;20069;-82
2022/05/02 05:57:57;;;;;;;34.55;12.02;;;;;;;14.07;54.40;100973.41;4956992;29;20027;-83
2022/05/02 06:00:25;;;;;;;31.08;13.50;;;;;;;14.15;54.29;100970.91;4956860;29;20030;-89
2022/05/02 06:03:13;;;;;;;27.38;11.15;;;;;;;14.36;53.86;100973.53;4972710;28;20035;-82
2022/05/02 06:05:40;;;;;;;27.77;10.60;;;;;;;14.40;52.35;100969.50;4957042;29;20094;-79
2022/05/02 06:08:13;;;;;;;31.83;7.50;;;;;;;14.39;50.53;100973.25;4956577;28;20042;-79
2022/05/02 06:10:42;;;;;;;14.05;5.10;;;;;;;14.50;49.92;100956.84;4961892;28;20132;-77
2022/05/02 06:13:08;;;;;;;6.68;2.78;;;;;;;14.75;47.71;100971.69;4961018;28;20106;-78
2022/05/02 06:18:30;;;;;;;8.73;3.70;;;;;;;15.18;45.88;100973.91;4956819;29;20472;-80
2022/05/02 06:20:59;;;;;;;17.73;3.15;;;;;;;15.34;45.43;100962.44;4971113;28;20090;-81
2022/05/02 06:23:31;;;;;;;23.77;5.55;;;;;;;15.46;44.71;100962.13;4956312;28;20078;-79
2022/05/02 06:25:57;;;;;;;5.13;2.42;;;;;;;15.63;44.41;100963.22;4956036;28;20050;-77
2022/05/02 06:28:28;;;;;;;22.77;3.58;;;;;;;15.77;44.44;100965.47;4955990;28;20039;-76
2022/05/02 06:30:59;;;;;;;9.10;3.50;;;;;;;15.89;43.11;100971.53;4954949;28;20474;-78
2022/05/02 06:33:25;;;;;;;12.40;4.18;;;;;;;16.01;43.41;100959.47;4955038;28;20027;-78
2022/05/02 06:36:13;;;;;;;14.02;3.90;;;;;;;16.06;43.39;100943.59;4954163;29;20043;-78
2022/05/02 06:38:55;;;;;;;5.85;3.15;;;;;;;16.19;43.42;100968.50;4955841;29;20034;-78
2022/05/02 06:41:33;;;;;;;14.80;2.28;;;;;;;16.27;42.71;100966.72;4955176;29;20033;-85
2022/05/02 06:44:17;;;;;;;22.83;5.00;;;;;;;16.45;42.47;100971.34;4956554;28;20038;-84
2022/05/02 06:47:23;;;;;;;14.18;3.63;;;;;;;16.61;42.89;100979.66;4955150;29;20106;-85
2022/05/02 06:49:51;;;;;;;10.02;3.20;;;;;;;16.70;42.10;100979.59;4956293;28;20035;-85
2022/05/02 06:52:24;;;;;;;12.05;2.88;;;;;;;16.81;42.46;100978.50;4954924;29;20051;-87
2022/05/02 06:54:55;;;;;;;22.20;3.10;;;;;;;16.91;42.30;100984.69;4956455;29;20517;-79
2022/05/02 06:57:56;;;;;;;8.75;3.80;;;;;;;17.06;41.83;100977.72;4958124;28;20031;-76
2022/05/02 07:00:23;;;;;;;10.60;4.97;;;;;;;17.10;41.86;100981.81;4964411;28;20031;-77
2022/05/02 07:03:27;;;;;;;8.23;3.67;;;;;;;17.14;41.78;100988.63;4954111;29;20038;-78
2022/05/02 07:06:28;;;;;;;7.80;2.83;;;;;;;17.17;41.91;100990.19;4953950;28;20624;-79
2022/05/02 07:09:00;;;;;;;15.75;4.00;;;;;;;17.21;42.49;100991.59;4969064;28;20519;-80
2022/05/02 07:11:47;;;;;;;11.95;3.00;;;;;;;17.32;42.67;100985.88;4973801;28;20489;-78
2022/05/02 07:14:30;;;;;;;13.50;3.05;;;;;;;17.27;42.35;100989.09;4974662;28;20031;-79
2022/05/02 07:17:06;;;;;;;10.73;3.30;;;;;;;17.33;42.66;100988.44;4974204;28;20031;-80
2022/05/02 07:19:40;;;;;;;8.38;3.17;;;;;;;17.46;43.13;100990.72;4974328;28;20023;-78
2022/05/02 07:22:09;;;;;;;5.03;2.70;;;;;;;17.55;42.74;100995.22;4974266;28;20113;-79
2022/05/02 07:24:58;;;;;;;11.88;4.38;;;;;;;17.56;42.65;100999.66;4974128;28;20035;-80
2022/05/02 07:27:33;;;;;;;10.57;3.47;;;;;;;17.65;42.65;100995.13;4974662;28;20026;-79
2022/05/02 07:29:59;;;;;;;6.18;2.80;;;;;;;17.63;43.01;101000.72;4974433;28;20031;-78
2022/05/02 07:32:25;;;;;;;10.95;3.03;;;;;;;17.74;42.95;100983.25;4974285;28;20034;-81
2022/05/02 07:34:52;;;;;;;10.82;3.63;;;;;;;17.87;43.26;101005.44;4974277;28;20035;-78
2022/05/02 07:37:23;;;;;;;14.43;3.33;;;;;;;17.88;43.02;101001.72;4972990;28;20113;-81
2022/05/02 07:39:50;;;;;;;14.80;3.72;;;;;;;17.98;43.20;101001.59;4988678;28;20062;-78
2022/05/02 07:42:18;;;;;;;7.70;3.17;;;;;;;18.07;43.06;101001.44;4988894;28;20034;-79
2022/05/02 07:44:46;;;;;;;15.00;3.55;;;;;;;18.06;43.51;100993.44;4957051;28;20130;-79
2022/05/02 07:47:15;;;;;;;15.57;3.20;;;;;;;18.12;43.91;101006.41;4974186;28;20109;-79
2022/05/02 07:49:49;;;;;;;41.55;4.18;;;;;;;18.16;43.37;100995.03;4972850;28;20034;-80
2022/05/02 07:52:21;;;;;;;9.55;3.80;;;;;;;18.18;43.57;100993.00;4974427;28;20090;-81
2022/05/02 07:54:47;;;;;;;21.30;4.95;;;;;;;18.24;44.15;100986.88;4989441;28;20046;-81
2022/05/02 07:57:14;;;;;;;12.88;3.15;;;;;;;18.22;44.28;100991.66;4974293;28;20418;-78
2022/05/02 07:59:44;;;;;;;9.60;3.03;;;;;;;18.23;44.36;100985.16;4973947;28;20054;-79
2022/05/02 08:02:10;;;;;;;23.83;4.55;;;;;;;18.20;44.57;100984.66;4972856;28;20031;-82
2022/05/02 08:04:37;;;;;;;9.82;3.38;;;;;;;18.26;44.35;100984.84;4993684;28;20127;-80
2022/05/02 08:07:13;;;;;;;11.00;3.40;;;;;;;18.33;44.81;100985.03;4967111;28;20032;-81
2022/05/02 08:09:57;;;;;;;18.55;4.18;;;;;;;18.35;45.02;100986.56;4935213;29;20035;-85
2022/05/02 08:12:37;;;;;;;13.63;3.30;;;;;;;18.34;44.98;100984.88;4936805;29;20039;-88
2022/05/02 08:15:37;;;;;;;10.80;4.03;;;;;;;18.35;45.69;100981.13;4951182;28;20429;-82
2022/05/02 08:18:14;;;;;;;7.43;3.30;;;;;;;18.44;45.46;100982.84;4936472;29;20068;-85
2022/05/02 08:21:01;;;;;;;6.45;2.90;;;;;;;18.41;45.38;100976.88;4936140;29;20094;-83
2022/05/02 08:30:04;;;;;;;20.10;4.28;;;;;;;18.54;45.80;100971.84;4936764;29;20043;-91
2022/05/02 08:32:57;;;;;;;8.25;2.95;;;;;;;18.62;46.08;100979.19;4937852;29;20040;-85
2022/05/02 08:35:31;;;;;;;6.65;2.50;;;;;;;18.74;45.54;100972.38;4949657;29;20053;-75
2022/05/02 08:38:44;;;;;;;7.35;2.45;;;;;;;18.64;45.49;100966.22;4935676;29;20044;-74
2022/05/02 08:41:13;;;;;;;;;;;;;;;18.71;45.28;100973.56;4939652;29;20036;-74
2022/05/02 08:43:54;;;;;;;11.43;2.92;;;;;;;18.67;45.79;100971.34;4934724;29;19926;-77
2022/05/02 08:46:32;;;;;;;15.05;4.25;;;;;;;18.78;46.09;100968.28;4935556;29;20063;-75
2022/05/02 08:49:36;;;;;;;19.15;4.15;;;;;;;18.82;45.64;100964.19;4949977;28;20111;-83
2022/05/02 08:52:19;;;;;;;12.27;4.15;;;;;;;18.89;45.36;100962.50;4962347;28;20079;-94
2022/05/02 08:55:13;;;;;;;10.15;2.95;;;;;;;18.87;45.28;100946.31;4976986;28;20039;-90
2022/05/02 08:57:54;;;;;;;23.40;3.55;;;;;;;19.07;45.19;100960.44;4985190;28;20045;-87
2022/05/02 09:00:56;;;;;;;15.70;3.50;;;;;;;19.10;45.35;100946.47;4959731;28;20039;-80
2022/05/02 09:03:50;;;;;;;16.05;3.58;;;;;;;19.20;45.27;100941.69;4976139;28;20461;-84
2022/05/02 09:06:19;;;;;;;10.95;2.72;;;;;;;19.17;45.07;100942.06;4958966;28;20027;-85
2022/05/02 09:09:24;;;;;;;19.25;2.67;;;;;;;19.24;45.11;100939.44;4960700;28;20035;-86
2022/05/02 09:12:21;;;;;;;12.60;3.10;;;;;;;19.22;44.99;100938.78;4968123;28;20110;-89
2022/05/02 09:15:28;;;;;;;6.00;2.80;;;;;;;19.25;45.51;100933.84;4960956;29;20035;-83
2022/05/02 09:18:39;;;;;;;9.63;3.83;;;;;;;19.24;45.05;100932.13;4975699;28;20031;-90
2022/05/02 09:21:42;;;;;;;8.95;2.72;;;;;;;19.35;44.86;100922.75;4962271;29;20027;-81
2022/05/02 09:24:44;;;;;;;20.70;3.40;;;;;;;19.41;44.90;100922.94;4961648;29;20130;-76
2022/05/02 09:27:21;;;;;;;8.65;3.20;;;;;;;19.42;44.66;100921.88;4961031;29;20090;-75
2022/05/02 09:30:14;;;;;;;2.88;2.42;;;;;;;19.34;44.67;100921.88;4961252;28;20114;-76
2022/05/02 09:33:01;;;;;;;7.53;3.40;;;;;;;19.41;44.70;100927.53;4959752;28;20159;-76
2022/05/02 09:36:14;;;;;;;17.17;3.15;;;;;;;19.36;44.40;100919.81;4971546;28;20118;-75
2022/05/02 09:38:48;;;;;;;11.60;2.72;;;;;;;19.36;44.64;100919.81;4938701;28;20398;-75
2022/05/02 09:41:52;;;;;;;12.73;2.95;;;;;;;19.27;44.27;100909.97;4970719;28;20035;-76
2022/05/02 09:50:51;;;;;;;15.35;2.78;;;;;;;19.28;44.89;100894.47;4920988;29;20099;-75
2022/05/02 09:53:35;;;;;;;9.02;2.97;;;;;;;19.38;44.15;100906.03;4936417;29;20059;-75
2022/05/02 09:59:02;;;;;;;15.30;2.88;;;;;;;19.43;44.31;100890.88;4936265;29;20035;-75
2022/05/02 10:01:32;;;;;;;13.55;2.72;;;;;;;19.40;43.93;100883.03;4936297;29;20118;-76
2022/05/02 10:04:28;;;;;;;10.40;3.28;;;;;;;19.34;44.63;100899.22;4936065;29;20414;-76
2022/05/02 10:06:55;;;;;;;17.33;3.50;;;;;;;19.34;43.86;100883.69;4935848;29;20106;-74
2022/05/02 10:09:37;;;;;;;12.40;2.83;;;;;;;19.44;43.80;100876.22;4966765;28;20085;-76
2022/05/02 10:12:07;;;;;;;16.42;3.35;;;;;;;19.54;43.91;100863.19;4934901;29;20043;-76
2022/05/02 10:15:09;;;;;;;15.52;3.53;;;;;;;19.74;43.66;100862.78;4936408;29;20040;-75
2022/05/02 10:18:18;;;;;;;10.52;3.67;;;;;;;19.84;43.79;100855.22;4936217;29;20119;-76
2022/05/02 10:20:43;;;;;;;6.10;3.00;;;;;;;19.87;43.74;100846.66;4948290;29;20034;-75
2022/05/02 10:23:51;;;;;;;25.65;3.80;;;;;;;19.93;43.16;100835.03;4936955;29;20438;-75
2022/05/02 10:26:32;;;;;;;9.90;3.25;;;;;;;19.95;42.91;100827.50;4930347;29;20050;-75
2022/05/02 10:29:19;;;;;;;11.18;2.70;;;;;;;20.09;43.49;100819.38;4935950;29;20027;-75
2022/05/02 10:31:55;;;;;;;13.57;3.78;;;;;;;20.17;43.05;100818.47;4950189;29;20417;-75
2022/05/02 10:34:27;;;;;;;11.82;4.18;;;;;;;20.12;43.48;100818.16;4950152;29;20024;-75
2022/05/02 10:36:53;;;;;;;15.77;3.20;;;;;;;20.20;43.12;100815.38;4934109;29;20026;-76
2022/05/02 10:39:39;;;;;;;22.08;4.38;;;;;;;20.17;43.79;100815.75;4935484;29;20410;-75
2022/05/02 10:42:11;;;;;;;18.38;4.32;;;;;;;20.35;43.46;100812.72;4935392;29;20470;-75
2022/05/02 10:44:50;;;;;;;9.20;3.15;;;;;;;20.30;43.04;100810.56;4934137;29;20035;-75
2022/05/02 10:47:19;;;;;;;11.85;3.30;;;;;;;20.12;43.49;100796.31;4935304;29;20063;-75
2022/05/02 10:50:18;;;;;;;18.48;4.95;;;;;;;20.30;43.39;100809.72;4935322;29;20403;-75
2022/05/02 10:52:46;;;;;;;7.45;2.83;;;;;;;20.40;43.18;100802.09;4932467;28;20051;-75
2022/05/02 10:55:27;;;;;;;11.80;4.03;;;;;;;20.52;42.64;100795.16;4954405;28;20056;-76
2022/05/02 10:57:55;;;;;;;9.13;3.47;;;;;;;20.54;42.00;100807.63;4954529;28;20023;-75
2022/05/02 11:00:22;;;;;;;11.52;2.78;;;;;;;20.55;42.08;100794.78;4954462;28;20478;-76
2022/05/02 11:03:25;;;;;;;10.43;3.63;;;;;;;20.57;41.79;100784.53;4954343;28;20033;-74
2022/05/02 11:06:20;;;;;;;10.63;3.53;;;;;;;20.74;41.18;100779.72;4954488;28;20782;-74
2022/05/02 11:08:53;;;;;;;17.20;3.58;;;;;;;20.74;40.52;100785.19;4968993;28;20035;-76
2022/05/02 11:11:26;;;;;;;9.75;2.42;;;;;;;20.61;41.00;100783.09;4954091;28;20023;-76
2022/05/02 11:14:12;;;;;;;9.02;3.35;;;;;;;20.51;40.95;100771.59;4967429;28;20031;-76
2022/05/02 11:16:52;;;;;;;9.23;3.25;;;;;;;20.59;40.88;100766.06;4953743;28;20030;-76
2022/05/02 11:22:25;;;;;;;19.55;2.78;;;;;;;20.80;40.19;100789.91;4953022;29;20461;-76
2022/05/02 11:25:03;;;;;;;7.45;3.17;;;;;;;20.84;40.27;100780.31;4953775;28;20109;-75
2022/05/02 11:27:57;;;;;;;14.05;3.50;;;;;;;20.88;39.66;100773.44;4968635;28;20446;-74
2022/05/02 11:30:27;;;;;;;6.72;2.95;;;;;;;20.69;39.79;100799.44;4953483;29;20027;-75
2022/05/02 11:33:15;;;;;;;9.38;3.08;;;;;;;20.78;39.91;100792.00;4968546;28;20114;-74
2022/05/02 11:35:47;;;;;;;6.05;2.63;;;;;;;20.76;40.17;100788.63;4959554;28;20035;-75
2022/05/02 11:38:27;;;;;;;4.10;2.43;;;;;;;20.67;39.49;100790.59;4952291;28;20030;-75
2022/05/02 11:41:15;;;;;;;21.30;3.28;;;;;;;20.62;39.85;100774.72;4953556;28;20505;-76
2022/05/02 11:43:44;;;;;;;6.50;2.80;;;;;;;20.74;39.72;100777.84;4953630;28;20098;-75
2022/05/02 11:46:26;;;;;;;8.98;3.45;;;;;;;20.78;39.31;100792.00;4953481;28;20082;-75
2022/05/02 11:48:52;;;;;;;21.67;4.22;;;;;;;20.71;39.20;100796.50;4953554;28;20030;-75
2022/05/02 11:51:42;;;;;;;9.63;2.58;;;;;;;20.71;38.97;100791.91;4953330;28;20035;-75
2022/05/02 11:54:22;;;;;;;13.70;2.83;;;;;;;20.83;38.49;100778.59;4952885;29;20039;-75
2022/05/02 11:57:06;;;;;;;5.28;3.00;;;;;;;20.89;38.73;100775.13;4960143;29;20037;-75
2022/05/02 11:59:53;;;;;;;5.95;2.90;;;;;;;20.99;38.16;100767.50;4976790;28;20031;-76
2022/05/02 12:02:40;;;;;;;20.63;10.05;;;;;;;21.01;37.69;100776.34;4953300;28;20038;-76
2022/05/02 12:05:14;;;;;;;20.67;3.28;;;;;;;20.86;37.44;100783.69;4953362;28;20038;-75
2022/05/02 12:07:40;;;;;;;14.27;4.50;;;;;;;20.91;38.24;100773.94;4953184;28;20034;-76
2022/05/02 12:10:08;;;;;;;8.77;3.05;;;;;;;20.82;37.83;100776.94;4953312;28;20038;-75
2022/05/02 12:12:36;;;;;;;13.13;3.42;;;;;;;20.93;38.42;100777.31;4953108;28;20553;-75
2022/05/02 12:15:09;;;;;;;8.05;3.05;;;;;;;21.02;38.06;100773.44;4953089;28;20027;-75
2022/05/02 12:17:56;;;;;;;4.13;2.20;;;;;;;20.99;37.62;100778.44;4951916;29;20034;-76